Time;durP1;ratioP1;P1;durP2;ratioP2;P2;SDS_P1;SDS_P2;PMS_P1;PMS_P2;Temp;Humidity;BMP_temperature;BMP_pressure;BME280_temperature;BME280_humidity;BME280_pressure;Samples;Min_cycle;Max_cycle;Signal;HPM_P1;HPM_P2
2020/12/10 00:00:13;;;;;;;30.02;20.13;;;5.40;92.60;;;;;;5094461;28;20761;-72
2020/12/10 00:02:39;;;;;;;30.80;19.98;;;5.50;92.50;;;;;;5092546;28;20580;-72
2020/12/10 00:05:07;;;;;;;34.77;21.63;;;5.40;92.20;;;;;;5094204;28;20180;-71
2020/12/10 00:07:34;;;;;;;33.78;19.38;;;5.40;92.40;;;;;;5093445;28;20410;-72
2020/12/10 00:10:00;;;;;;;32.75;20.48;;;5.40;92.70;;;;;;5094099;28;20204;-72
2020/12/10 00:12:26;;;;;;;31.73;19.87;;;5.40;93.00;;;;;;5093963;28;20698;-73
2020/12/10 00:14:53;;;;;;;28.17;19.00;;;5.40;93.10;;;;;;5093765;28;20180;-72
2020/12/10 00:17:27;;;;;;;27.58;18.95;;;5.50;93.10;;;;;;5093724;28;20177;-72
2020/12/10 00:19:53;;;;;;;32.38;18.88;;;5.50;93.10;;;;;;5093629;28;20192;-72
2020/12/10 00:22:20;;;;;;;28.42;19.40;;;5.50;93.10;;;;;;5093542;28;20620;-72
2020/12/10 00:24:47;;;;;;;28.70;17.25;;;5.50;93.00;;;;;;5093266;28;20168;-72
2020/12/10 00:27:17;;;;;;;31.77;20.42;;;5.60;93.00;;;;;;5093838;28;20208;-72
2020/12/10 00:29:46;;;;;;;28.77;19.30;;;5.50;92.90;;;;;;5092604;28;20176;-72
2020/12/10 00:32:13;;;;;;;29.48;19.48;;;5.50;93.10;;;;;;5075372;28;20221;-72
2020/12/10 00:34:39;;;;;;;27.67;18.50;;;5.50;93.00;;;;;;5092594;28;20183;-72
2020/12/10 00:37:06;;;;;;;27.25;18.30;;;5.60;93.00;;;;;;5093618;28;20650;-72
2020/12/10 00:39:33;;;;;;;26.40;18.42;;;5.60;93.10;;;;;;5092720;28;20177;-72
2020/12/10 00:41:59;;;;;;;27.70;18.52;;;5.60;93.20;;;;;;5092967;28;20572;-72
2020/12/10 00:44:24;;;;;;;30.17;18.90;;;5.60;93.30;;;;;;5092993;28;20168;-73
2020/12/10 00:46:50;;;;;;;25.40;17.77;;;5.60;93.40;;;;;;5074641;28;20176;-72
2020/12/10 00:49:16;;;;;;;26.70;19.80;;;5.60;93.30;;;;;;5093092;28;20192;-72
2020/12/10 00:51:46;;;;;;;30.30;20.00;;;5.60;93.30;;;;;;5092708;28;20172;-72
2020/12/10 00:54:12;;;;;;;33.30;20.52;;;5.60;93.40;;;;;;5093427;28;20177;-72
2020/12/10 00:56:38;;;;;;;28.15;19.10;;;5.60;93.40;;;;;;5092125;28;20215;-72
2020/12/10 00:59:03;;;;;;;26.57;18.80;;;5.70;93.50;;;;;;5092820;28;20184;-72
2020/12/10 01:01:29;;;;;;;29.80;18.00;;;5.60;93.50;;;;;;5092235;28;20245;-72
2020/12/10 01:03:55;;;;;;;24.42;16.88;;;5.60;93.60;;;;;;5092998;28;20207;-72
2020/12/10 01:06:21;;;;;;;28.97;18.30;;;5.60;93.80;;;;;;5093273;28;20176;-72
2020/12/10 01:08:46;;;;;;;24.70;17.00;;;5.60;93.90;;;;;;5091702;28;20221;-72
2020/12/10 01:11:12;;;;;;;26.10;18.30;;;5.60;93.90;;;;;;5092379;28;20211;-71
2020/12/10 01:22:57;;;;;;;27.45;17.65;;;5.50;93.90;;;;;;5028719;22;20230;-71
2020/12/10 01:25:23;;;;;;;24.50;16.40;;;5.50;94.00;;;;;;5013630;28;20202;-71
2020/12/10 01:27:49;;;;;;;23.83;17.00;;;5.50;94.00;;;;;;5012808;28;20265;-71
2020/12/10 01:30:14;;;;;;;25.57;17.30;;;5.50;94.00;;;;;;5011944;28;20288;-73
2020/12/10 01:32:40;;;;;;;27.70;17.47;;;5.50;94.00;;;;;;5011497;28;20214;-71
2020/12/10 01:35:09;;;;;;;26.90;17.87;;;5.50;93.90;;;;;;5012318;28;20198;-71
2020/12/10 01:37:35;;;;;;;26.33;16.73;;;5.50;93.90;;;;;;5012676;28;20593;-71
2020/12/10 01:40:03;;;;;;;28.38;17.90;;;5.50;93.90;;;;;;5011816;28;20237;-72
2020/12/10 01:42:28;;;;;;;25.20;17.02;;;5.60;94.10;;;;;;5011566;28;20266;-71
2020/12/10 01:44:54;;;;;;;25.50;17.07;;;5.60;94.10;;;;;;5012354;28;20603;-71
2020/12/10 01:47:22;;;;;;;25.97;17.10;;;5.60;94.10;;;;;;5011530;28;20194;-71
2020/12/10 01:49:48;;;;;;;24.80;16.35;;;5.60;94.10;;;;;;5012626;28;20175;-73
2020/12/10 01:52:14;;;;;;;29.57;19.60;;;5.60;94.10;;;;;;5011088;28;20288;-71
2020/12/10 01:54:39;;;;;;;25.20;17.33;;;5.70;94.10;;;;;;5012112;28;20393;-73
2020/12/10 01:57:05;;;;;;;21.73;16.23;;;5.70;94.10;;;;;;5011656;28;20661;-71
2020/12/10 01:59:31;;;;;;;27.47;19.57;;;5.70;93.70;;;;;;5012423;28;20182;-71
2020/12/10 02:01:57;;;;;;;25.33;16.90;;;5.60;93.70;;;;;;5012204;28;20258;-72
2020/12/10 02:04:34;;;;;;;28.20;17.43;;;5.70;94.00;;;;;;5011676;28;20233;-71
2020/12/10 02:07:03;;;;;;;26.55;17.45;;;5.70;94.00;;;;;;5006216;28;20174;-73
2020/12/10 02:09:30;;;;;;;25.52;17.65;;;5.70;93.90;;;;;;5014268;28;20573;-71
2020/12/10 02:11:56;;;;;;;26.95;17.35;;;5.70;93.90;;;;;;5012531;28;20337;-71
2020/12/10 02:14:22;;;;;;;25.13;18.10;;;5.70;93.90;;;;;;5011720;28;20254;-71
2020/12/10 02:16:55;;;;;;;25.73;17.55;;;5.80;93.80;;;;;;5012337;28;20178;-71
2020/12/10 02:19:21;;;;;;;26.45;19.17;;;5.70;93.70;;;;;;5009520;28;21003;-73
2020/12/10 02:21:47;;;;;;;28.37;17.87;;;5.70;93.70;;;;;;5011420;28;20218;-73
2020/12/10 02:24:17;;;;;;;28.57;19.27;;;5.70;93.70;;;;;;5009252;28;20434;-73
2020/12/10 02:26:46;;;;;;;27.45;17.92;;;5.70;93.80;;;;;;5011310;28;20395;-72
2020/12/10 02:29:12;;;;;;;25.52;17.08;;;5.70;94.00;;;;;;5011304;28;20185;-72
2020/12/10 02:31:38;;;;;;;28.38;17.52;;;5.70;93.90;;;;;;5011859;28;20234;-73
2020/12/10 02:34:06;;;;;;;27.60;18.58;;;5.70;93.80;;;;;;5010884;28;20211;-73
2020/12/10 02:36:34;;;;;;;28.20;18.35;;;5.70;93.80;;;;;;5011571;28;20182;-73
2020/12/10 02:39:00;;;;;;;24.92;16.42;;;5.70;93.50;;;;;;5011515;28;20530;-73
2020/12/10 02:41:26;;;;;;;25.55;17.88;;;5.70;93.40;;;;;;5011271;28;20167;-72
2020/12/10 02:43:52;;;;;;;27.35;18.20;;;5.60;93.50;;;;;;5007871;28;20199;-72
2020/12/10 02:46:18;;;;;;;28.93;19.00;;;5.60;93.60;;;;;;5012036;28;20214;-72
2020/12/10 02:48:44;;;;;;;27.63;19.25;;;5.60;93.70;;;;;;5012150;28;20179;-72
2020/12/10 02:51:10;;;;;;;25.17;17.15;;;5.60;93.70;;;;;;5010512;28;20719;-72
2020/12/10 02:53:37;;;;;;;28.60;17.83;;;5.60;93.60;;;;;;5008904;28;20569;-72
2020/12/10 02:56:11;;;;;;;25.13;17.13;;;5.60;93.70;;;;;;5009496;28;20581;-74
2020/12/10 02:58:37;;;;;;;26.38;17.40;;;5.60;93.70;;;;;;5006498;28;20245;-73
2020/12/10 03:01:08;;;;;;;25.23;17.35;;;5.60;93.60;;;;;;5010361;28;20179;-73
2020/12/10 03:03:34;;;;;;;28.15;18.35;;;5.60;93.50;;;;;;5010700;28;20201;-72
2020/12/10 03:06:05;;;;;;;30.00;19.35;;;5.60;93.40;;;;;;5015238;28;20262;-72
2020/12/10 03:08:31;;;;;;;25.73;17.60;;;5.60;93.40;;;;;;5015490;28;20160;-72
2020/12/10 03:10:58;;;;;;;25.98;18.08;;;5.60;93.40;;;;;;5015427;28;20245;-72
2020/12/10 03:13:24;;;;;;;26.35;18.25;;;5.60;93.20;;;;;;5013386;28;20221;-73
2020/12/10 03:15:50;;;;;;;24.35;16.55;;;5.50;93.10;;;;;;4995362;28;20199;-72
2020/12/10 03:18:16;;;;;;;27.90;18.10;;;5.50;93.10;;;;;;5015425;28;20254;-72
2020/12/10 03:20:42;;;;;;;25.97;16.97;;;5.40;92.80;;;;;;5014087;28;20178;-72
2020/12/10 03:23:07;;;;;;;25.00;16.80;;;5.40;93.00;;;;;;5014048;28;20273;-73
2020/12/10 03:25:33;;;;;;;27.93;17.83;;;5.50;93.00;;;;;;5013969;28;20694;-72
2020/12/10 03:27:59;;;;;;;25.83;18.63;;;5.40;92.90;;;;;;5015167;28;20580;-72
2020/12/10 03:30:24;;;;;;;26.27;18.17;;;5.40;93.10;;;;;;5012481;28;20179;-72
2020/12/10 03:32:50;;;;;;;30.43;18.83;;;5.10;93.80;;;;;;5013113;28;20211;-72
2020/12/10 03:35:17;;;;;;;28.37;17.73;;;5.00;94.60;;;;;;5014175;28;20228;-73
2020/12/10 03:37:42;;;;;;;25.23;16.48;;;5.00;94.60;;;;;;5014978;28;20631;-72
2020/12/10 03:40:08;;;;;;;27.07;17.70;;;5.00;94.60;;;;;;5013961;28;20181;-73
2020/12/10 03:42:34;;;;;;;30.33;18.37;;;5.00;94.30;;;;;;5015022;28;20241;-72
2020/12/10 03:45:00;;;;;;;27.48;17.70;;;5.10;94.00;;;;;;5014818;28;20406;-72
2020/12/10 03:47:26;;;;;;;28.80;17.20;;;5.10;93.90;;;;;;5008822;28;20182;-72
2020/12/10 03:49:51;;;;;;;26.30;17.00;;;5.10;93.60;;;;;;5015248;28;20214;-72
2020/12/10 03:52:18;;;;;;;27.37;16.90;;;5.10;93.30;;;;;;5014026;28;20219;-72
2020/12/10 03:54:44;;;;;;;25.85;16.45;;;5.10;93.20;;;;;;5014567;28;20569;-72
2020/12/10 03:57:10;;;;;;;26.70;16.52;;;5.10;93.00;;;;;;5013816;28;20186;-72
2020/12/10 03:59:36;;;;;;;22.53;16.20;;;5.10;92.70;;;;;;5014615;28;20545;-72
2020/12/10 04:02:02;;;;;;;28.13;17.77;;;5.20;92.60;;;;;;5014104;28;20460;-73
2020/12/10 04:04:28;;;;;;;25.95;17.70;;;5.10;92.60;;;;;;5011782;28;20233;-69
2020/12/10 04:06:54;;;;;;;25.43;17.20;;;5.10;92.40;;;;;;5014334;28;20615;-69
2020/12/10 04:09:19;;;;;;;27.10;18.10;;;5.10;92.50;;;;;;5013457;28;20180;-69
2020/12/10 04:11:45;;;;;;;28.73;18.03;;;5.00;92.60;;;;;;5014107;28;20176;-69
2020/12/10 04:14:11;;;;;;;29.85;17.42;;;5.00;93.00;;;;;;5011933;28;20183;-69
2020/12/10 04:16:37;;;;;;;23.20;16.53;;;5.00;93.30;;;;;;5012778;28;20758;-69
2020/12/10 04:19:03;;;;;;;27.57;17.87;;;5.00;93.50;;;;;;5013805;28;20659;-69
2020/12/10 04:21:29;;;;;;;30.35;18.98;;;4.90;93.60;;;;;;4995629;28;20179;-69
2020/12/10 04:23:55;;;;;;;25.90;17.70;;;4.40;94.10;;;;;;5013743;28;20193;-69
2020/12/10 04:26:20;;;;;;;26.43;17.50;;;4.30;94.90;;;;;;5013276;28;20206;-69
2020/12/10 04:28:46;;;;;;;28.85;18.30;;;4.30;95.10;;;;;;5014001;28;20186;-69
2020/12/10 04:31:12;;;;;;;27.40;17.60;;;4.20;95.00;;;;;;5013219;28;20175;-69
2020/12/10 04:33:38;;;;;;;28.90;17.90;;;4.20;95.60;;;;;;5013623;28;20210;-69
2020/12/10 04:36:05;;;;;;;25.35;17.10;;;4.30;95.60;;;;;;5013867;28;20190;-69
2020/12/10 04:38:32;;;;;;;30.92;19.15;;;4.40;95.30;;;;;;5013206;28;20631;-69
2020/12/10 04:41:05;;;;;;;28.77;18.23;;;4.40;95.00;;;;;;5012617;28;20517;-69
2020/12/10 04:43:31;;;;;;;23.35;17.00;;;4.50;94.60;;;;;;5012905;28;20193;-69
2020/12/10 04:46:04;;;;;;;27.90;18.65;;;4.50;94.10;;;;;;5013440;28;20187;-69
2020/12/10 04:48:35;;;;;;;28.33;17.50;;;4.50;94.00;;;;;;5012875;28;20171;-69
2020/12/10 04:51:05;;;;;;;26.65;16.98;;;4.50;93.90;;;;;;5012351;28;20674;-69
2020/12/10 04:53:31;;;;;;;25.55;17.85;;;4.50;93.80;;;;;;5011162;28;20226;-69
2020/12/10 04:56:02;;;;;;;29.02;17.90;;;4.40;94.00;;;;;;5012261;28;20222;-69
2020/12/10 04:58:28;;;;;;;29.88;19.33;;;4.40;94.10;;;;;;5011260;28;20232;-69
2020/12/10 05:01:01;;;;;;;26.97;16.87;;;4.50;94.20;;;;;;5012088;28;20550;-69
2020/12/10 05:03:28;;;;;;;27.55;17.48;;;4.50;93.90;;;;;;5012411;28;20273;-69
2020/12/10 05:06:08;;;;;;;26.73;17.40;;;4.40;93.60;;;;;;5013283;28;20175;-69
2020/12/10 05:08:34;;;;;;;26.90;17.30;;;4.40;93.60;;;;;;5011915;28;20324;-69
2020/12/10 05:11:00;;;;;;;25.47;16.90;;;4.40;93.80;;;;;;5011784;28;20183;-69
2020/12/10 05:13:26;;;;;;;25.87;16.40;;;4.40;93.80;;;;;;5012402;28;20329;-69
2020/12/10 05:15:51;;;;;;;27.03;18.17;;;4.30;93.60;;;;;;5013191;28;20416;-69
2020/12/10 05:18:18;;;;;;;29.23;18.60;;;4.30;93.40;;;;;;5012397;28;20175;-69
2020/12/10 05:20:49;;;;;;;28.95;18.27;;;4.30;93.70;;;;;;5013044;28;20179;-69
2020/12/10 05:23:17;;;;;;;29.10;17.40;;;4.30;94.10;;;;;;5012283;28;20242;-69
2020/12/10 05:25:49;;;;;;;27.77;17.00;;;4.30;93.80;;;;;;5012979;28;20189;-69
2020/12/10 05:28:16;;;;;;;26.40;17.90;;;4.30;93.80;;;;;;5012032;28;20182;-69
2020/12/10 05:31:07;;;;;;;26.42;17.35;;;4.20;93.70;;;;;;5012924;28;20609;-69
2020/12/10 05:33:33;;;;;;;29.13;18.17;;;4.20;93.90;;;;;;5011841;28;20275;-69
2020/12/10 05:36:10;;;;;;;26.92;17.55;;;4.30;94.00;;;;;;5012847;28;20536;-69
2020/12/10 05:38:52;;;;;;;27.77;17.30;;;4.30;94.60;;;;;;5012379;28;20174;-69
2020/12/10 05:41:19;;;;;;;28.13;17.58;;;4.30;94.30;;;;;;5012000;28;20178;-69
2020/12/10 05:43:46;;;;;;;24.60;15.80;;;4.30;94.00;;;;;;5012727;28;20183;-69
2020/12/10 05:46:22;;;;;;;27.02;16.80;;;4.20;93.90;;;;;;5012383;28;20623;-71
2020/12/10 05:48:50;;;;;;;27.08;16.75;;;4.20;93.80;;;;;;5012798;28;20159;-69
2020/12/10 05:51:18;;;;;;;26.15;16.45;;;4.30;93.60;;;;;;5012116;28;20209;-69
2020/12/10 05:53:44;;;;;;;25.38;16.70;;;4.30;93.80;;;;;;5012215;28;20225;-69
2020/12/10 05:56:12;;;;;;;24.80;15.95;;;4.30;94.00;;;;;;5012419;28;20179;-70
2020/12/10 05:58:49;;;;;;;25.45;15.93;;;4.10;93.90;;;;;;5011928;28;20187;-69
2020/12/10 06:01:32;;;;;;;25.67;17.25;;;4.10;93.60;;;;;;5011766;28;20213;-70
2020/12/10 06:03:58;;;;;;;26.25;15.82;;;4.10;93.60;;;;;;5012465;28;20240;-69
2020/12/10 06:06:27;;;;;;;26.08;16.55;;;4.00;93.50;;;;;;5010511;28;20171;-69
2020/12/10 06:09:01;;;;;;;26.65;16.35;;;4.00;93.40;;;;;;5012438;28;20185;-69
2020/12/10 06:11:28;;;;;;;28.20;16.02;;;4.00;93.70;;;;;;5011493;28;20166;-69
2020/12/10 06:14:01;;;;;;;28.25;17.83;;;4.00;93.60;;;;;;5011942;28;20217;-69
2020/12/10 06:16:27;;;;;;;25.50;15.45;;;4.00;93.80;;;;;;5011567;28;20197;-69
2020/12/10 06:19:14;;;;;;;24.17;16.17;;;4.00;93.90;;;;;;5011503;28;20210;-69
2020/12/10 06:21:45;;;;;;;27.20;16.45;;;4.00;93.60;;;;;;5012196;28;20240;-69
2020/12/10 06:24:26;;;;;;;26.67;17.23;;;3.90;93.50;;;;;;5011162;28;20201;-69
2020/12/10 06:26:52;;;;;;;23.67;14.45;;;3.90;93.60;;;;;;5012437;28;20181;-69
2020/12/10 06:29:19;;;;;;;24.48;14.77;;;3.80;93.60;;;;;;5011580;28;20166;-67
2020/12/10 06:32:30;;;;;;;28.02;17.08;;;3.80;93.50;;;;;;5011028;28;20182;-68
2020/12/10 06:34:57;;;;;;;21.15;14.65;;;3.80;93.60;;;;;;5003209;28;20550;-68
2020/12/10 06:37:29;;;;;;;29.33;15.40;;;3.80;94.00;;;;;;5011385;28;20175;-68
2020/12/10 06:40:00;;;;;;;24.13;14.77;;;3.80;93.90;;;;;;5014132;28;20162;-68
2020/12/10 06:42:43;;;;;;;23.10;14.77;;;3.80;94.00;;;;;;5015182;28;20224;-69
2020/12/10 06:45:26;;;;;;;28.65;16.35;;;3.80;93.80;;;;;;5016067;28;20254;-68
2020/12/10 06:47:52;;;;;;;29.17;18.48;;;3.80;94.00;;;;;;5015898;28;20169;-69
2020/12/10 06:50:26;;;;;;;29.23;16.70;;;3.70;93.90;;;;;;5014280;28;20193;-68
2020/12/10 06:53:12;;;;;;;22.98;16.05;;;3.80;93.90;;;;;;5015672;28;20563;-68
2020/12/10 06:56:04;;;;;;;32.55;17.98;;;3.80;94.00;;;;;;5014768;28;20190;-68
2020/12/10 06:58:36;;;;;;;31.10;19.10;;;3.70;93.70;;;;;;5014955;28;20225;-68
2020/12/10 07:01:38;;;;;;;29.52;18.20;;;3.80;93.70;;;;;;5015711;28;20182;-68
2020/12/10 07:07:15;;;;;;;29.23;18.50;;;3.70;94.50;;;;;;5011537;28;20221;-68
2020/12/10 07:09:53;;;;;;;28.23;19.23;;;3.70;94.60;;;;;;5014985;28;20266;-67
2020/12/10 07:12:26;;;;;;;28.38;18.05;;;3.70;94.70;;;;;;5014544;28;20569;-68
2020/12/10 07:15:16;;;;;;;29.63;18.40;;;3.70;94.50;;;;;;5013845;28;20281;-68
2020/12/10 07:18:08;;;;;;;26.63;17.30;;;3.70;94.30;;;;;;5009982;28;20186;-68
2020/12/10 07:20:34;;;;;;;29.83;18.25;;;3.70;94.30;;;;;;5014198;28;20178;-68
2020/12/10 07:23:00;;;;;;;25.77;16.83;;;3.70;94.10;;;;;;5014628;28;20302;-68
2020/12/10 07:25:26;;;;;;;31.33;18.45;;;3.80;94.10;;;;;;5014305;28;20189;-68
2020/12/10 07:27:52;;;;;;;25.53;16.90;;;3.80;94.00;;;;;;5015255;28;20209;-68
2020/12/10 07:30:19;;;;;;;31.23;18.40;;;3.80;94.20;;;;;;5014596;28;20186;-70
2020/12/10 07:32:50;;;;;;;29.45;18.48;;;3.80;94.00;;;;;;5013260;28;20470;-69
2020/12/10 07:35:31;;;;;;;27.13;16.67;;;3.80;94.10;;;;;;5012238;28;20220;-69
2020/12/10 07:38:12;;;;;;;28.23;18.48;;;3.70;94.10;;;;;;5014387;28;20254;-69
2020/12/10 07:40:43;;;;;;;40.17;22.88;;;3.80;94.40;;;;;;5014586;28;20197;-68
2020/12/10 07:43:10;;;;;;;29.33;20.35;;;3.70;94.50;;;;;;5013641;28;20232;-68
2020/12/10 07:45:37;;;;;;;37.17;21.60;;;3.70;94.80;;;;;;5014030;28;20210;-68
2020/12/10 07:48:06;;;;;;;34.05;22.25;;;3.70;95.10;;;;;;5014803;28;20512;-68
2020/12/10 07:50:35;;;;;;;40.13;25.42;;;3.70;95.20;;;;;;5009540;28;21250;-68
2020/12/10 07:53:07;;;;;;;40.35;25.27;;;3.70;95.40;;;;;;5013497;28;20553;-68
2020/12/10 07:55:36;;;;;;;39.97;24.48;;;3.80;95.60;;;;;;5014300;28;20197;-68
2020/12/10 07:58:11;;;;;;;37.88;23.25;;;3.80;95.70;;;;;;5014379;28;20630;-68
2020/12/10 08:00:38;;;;;;;36.67;22.85;;;3.80;95.70;;;;;;5013816;28;20508;-68
2020/12/10 08:03:38;;;;;;;38.97;23.42;;;3.80;95.50;;;;;;5014556;28;20247;-68
2020/12/10 08:06:08;;;;;;;32.38;20.27;;;3.90;95.60;;;;;;5004584;28;20193;-70
2020/12/10 08:08:43;;;;;;;32.35;20.05;;;3.90;95.60;;;;;;5010588;28;20194;-68
2020/12/10 08:11:10;;;;;;;32.13;19.60;;;3.90;95.80;;;;;;5015020;28;20172;-68
2020/12/10 08:13:37;;;;;;;28.75;17.70;;;3.90;95.80;;;;;;5013847;28;20213;-68
2020/12/10 08:16:10;;;;;;;29.60;18.95;;;3.90;95.80;;;;;;5013661;28;20573;-68
2020/12/10 08:18:38;;;;;;;30.23;21.00;;;4.00;95.80;;;;;;5012437;28;20186;-68
2020/12/10 08:21:06;;;;;;;26.38;18.13;;;4.00;95.70;;;;;;5014207;28;20178;-67
2020/12/10 08:23:45;;;;;;;28.88;18.35;;;4.00;95.60;;;;;;5009050;28;20827;-68
2020/12/10 08:26:14;;;;;;;30.65;17.73;;;3.90;95.60;;;;;;5013925;28;20194;-68
2020/12/10 08:29:00;;;;;;;30.95;19.00;;;4.00;95.90;;;;;;5013380;28;20250;-68
2020/12/10 08:31:28;;;;;;;33.38;19.63;;;4.00;95.80;;;;;;5013497;28;20170;-68
2020/12/10 08:33:55;;;;;;;25.67;18.02;;;4.00;95.70;;;;;;5014172;28;20222;-68
2020/12/10 08:36:31;;;;;;;29.88;17.80;;;4.10;95.70;;;;;;5013542;28;20186;-68
2020/12/10 08:38:59;;;;;;;30.63;17.98;;;4.10;95.70;;;;;;5013219;28;20178;-68
2020/12/10 08:41:26;;;;;;;27.05;17.85;;;4.20;96.00;;;;;;5013426;28;20239;-68
2020/12/10 08:43:56;;;;;;;31.65;20.60;;;4.20;96.10;;;;;;5013200;28;20194;-68
2020/12/10 08:46:23;;;;;;;32.45;19.42;;;4.20;96.20;;;;;;5013391;28;20262;-68
2020/12/10 08:48:57;;;;;;;27.77;18.45;;;4.30;96.40;;;;;;5013942;28;20177;-68
2020/12/10 08:51:44;;;;;;;28.55;18.80;;;4.30;96.50;;;;;;5013377;28;20245;-68
2020/12/10 08:54:10;;;;;;;31.15;19.77;;;4.30;96.60;;;;;;5013433;28;20241;-69
2020/12/10 08:56:37;;;;;;;27.67;20.00;;;4.40;96.60;;;;;;5013249;28;20171;-68
2020/12/10 08:59:04;;;;;;;31.83;20.40;;;4.40;96.70;;;;;;5013843;28;20850;-68
2020/12/10 09:01:31;;;;;;;34.88;22.42;;;4.40;96.60;;;;;;5012818;28;20559;-68
2020/12/10 09:04:12;;;;;;;37.15;22.42;;;4.50;96.60;;;;;;5012302;28;20183;-68
2020/12/10 09:06:42;;;;;;;30.58;19.13;;;4.50;96.70;;;;;;5011647;28;20285;-68
2020/12/10 09:09:08;;;;;;;27.17;15.20;;;4.50;96.70;;;;;;5013668;28;20178;-68
2020/12/10 09:11:35;;;;;;;25.08;17.08;;;4.60;96.90;;;;;;5012701;28;20192;-68
2020/12/10 09:14:24;;;;;;;23.75;16.60;;;4.60;97.10;;;;;;5013504;28;20208;-68
2020/12/10 09:16:54;;;;;;;18.40;13.35;;;4.70;97.30;;;;;;5013594;28;20163;-68
2020/12/10 09:19:20;;;;;;;18.42;11.80;;;4.70;97.40;;;;;;5013581;28;20163;-68
2020/12/10 09:21:46;;;;;;;16.13;12.53;;;4.80;97.40;;;;;;5012696;28;20220;-68
2020/12/10 09:24:12;;;;;;;19.37;12.43;;;4.90;97.50;;;;;;5013418;28;20272;-68
2020/12/10 09:26:38;;;;;;;22.73;13.53;;;4.90;97.40;;;;;;5012565;28;20183;-68
2020/12/10 09:29:04;;;;;;;17.67;11.43;;;4.80;97.50;;;;;;5012043;28;20179;-68
2020/12/10 09:31:30;;;;;;;20.20;11.90;;;4.90;97.80;;;;;;5012602;28;20175;-68
2020/12/10 09:33:55;;;;;;;17.60;11.70;;;4.70;97.40;;;;;;5013108;28;20454;-68
2020/12/10 09:36:27;;;;;;;17.25;11.80;;;4.60;98.20;;;;;;5012541;28;20171;-70
2020/12/10 09:38:52;;;;;;;20.23;11.57;;;4.70;98.20;;;;;;5012055;28;20170;-68
2020/12/10 09:41:22;;;;;;;17.23;12.13;;;4.70;98.30;;;;;;5013140;28;20174;-68
2020/12/10 09:43:48;;;;;;;21.25;14.05;;;4.80;98.20;;;;;;5012122;28;20270;-68
2020/12/10 09:46:14;;;;;;;19.90;13.83;;;4.90;98.20;;;;;;5013056;28;20319;-68
2020/12/10 09:48:40;;;;;;;20.75;13.82;;;5.00;97.90;;;;;;5011391;28;20397;-68
2020/12/10 09:51:07;;;;;;;19.97;13.50;;;5.00;97.80;;;;;;5011261;28;20171;-68
2020/12/10 09:53:47;;;;;;;17.17;13.25;;;5.10;97.80;;;;;;5010757;28;20230;-68
2020/12/10 09:58:38;;;;;;;22.40;14.37;;;4.90;97.60;;;;;;5010821;28;20180;-68
2020/12/10 10:01:08;;;;;;;21.93;15.97;;;5.00;98.00;;;;;;5011536;28;20894;-68
2020/12/10 10:03:35;;;;;;;22.63;14.77;;;5.10;97.90;;;;;;5010912;28;20631;-68
2020/12/10 10:06:05;;;;;;;23.65;14.73;;;5.30;97.80;;;;;;5011476;28;20226;-68
2020/12/10 10:08:32;;;;;;;18.25;14.48;;;5.30;97.60;;;;;;5011003;28;20176;-68
2020/12/10 10:10:58;;;;;;;20.58;13.77;;;5.40;97.50;;;;;;5012290;28;20186;-68
2020/12/10 10:13:24;;;;;;;22.23;15.90;;;5.50;97.40;;;;;;5011626;28;20581;-70
2020/12/10 10:15:53;;;;;;;20.73;15.63;;;5.50;97.30;;;;;;5015007;28;20186;-68
2020/12/10 10:18:22;;;;;;;17.50;14.07;;;5.60;97.20;;;;;;5014556;28;20179;-68
2020/12/10 10:20:49;;;;;;;17.55;12.93;;;5.40;97.10;;;;;;5014937;28;20203;-68
2020/12/10 10:23:15;;;;;;;18.45;13.20;;;5.50;97.50;;;;;;5013639;28;20253;-68
2020/12/10 10:25:40;;;;;;;17.03;13.90;;;5.50;97.20;;;;;;5014870;28;20218;-68
2020/12/10 10:28:08;;;;;;;22.67;14.10;;;5.60;97.30;;;;;;5014082;28;20272;-68
2020/12/10 10:30:37;;;;;;;22.70;15.20;;;5.70;97.20;;;;;;5014569;28;20191;-68
2020/12/10 10:33:03;;;;;;;17.67;12.40;;;5.70;96.90;;;;;;5014890;28;20248;-68
2020/12/10 10:35:29;;;;;;;17.67;12.98;;;5.80;96.80;;;;;;5014633;28;20223;-68
2020/12/10 10:38:15;;;;;;;20.40;14.17;;;5.80;96.70;;;;;;5015125;28;20175;-68
2020/12/10 10:40:40;;;;;;;17.70;13.65;;;5.80;96.60;;;;;;5010925;28;20179;-68
2020/12/10 10:43:06;;;;;;;16.80;12.40;;;5.80;96.70;;;;;;5015116;28;20183;-68
2020/12/10 10:45:32;;;;;;;18.43;13.00;;;5.80;96.50;;;;;;5014391;28;20190;-69
2020/12/10 10:47:57;;;;;;;21.80;14.20;;;5.90;96.50;;;;;;5014678;28;20179;-68
2020/12/10 10:50:23;;;;;;;16.67;12.50;;;5.90;96.50;;;;;;5015336;28;20583;-68
2020/12/10 10:52:49;;;;;;;17.83;13.57;;;6.00;96.40;;;;;;5015591;28;20298;-68
2020/12/10 10:55:14;;;;;;;14.73;11.43;;;6.00;96.20;;;;;;5015882;28;20187;-68
2020/12/10 10:57:40;;;;;;;15.57;12.47;;;6.00;96.00;;;;;;5015485;28;20175;-68
2020/12/10 11:00:06;;;;;;;16.10;11.60;;;6.10;96.00;;;;;;5015381;28;20175;-68
2020/12/10 11:02:51;;;;;;;15.77;12.07;;;6.10;95.90;;;;;;5015384;28;20628;-67
2020/12/10 11:05:17;;;;;;;17.88;11.95;;;6.20;95.60;;;;;;5015759;28;20627;-70
2020/12/10 11:07:43;;;;;;;17.60;13.00;;;6.20;95.60;;;;;;5015354;28;20175;-70
2020/12/10 11:10:13;;;;;;;17.33;15.43;;;6.20;95.60;;;;;;5015934;28;20443;-70
2020/12/10 11:12:41;;;;;;;18.63;13.27;;;6.30;95.70;;;;;;5013981;28;20290;-68
2020/12/10 11:15:07;;;;;;;18.15;13.05;;;6.10;95.10;;;;;;5015494;28;20191;-71
2020/12/10 11:17:33;;;;;;;18.90;13.23;;;6.10;95.30;;;;;;5015110;28;20175;-72
2020/12/10 11:20:00;;;;;;;17.23;11.70;;;6.20;95.50;;;;;;5015326;28;20632;-72
2020/12/10 11:22:47;;;;;;;17.15;12.75;;;6.20;95.60;;;;;;5013920;28;20227;-71
2020/12/10 11:25:13;;;;;;;17.30;13.50;;;6.30;95.40;;;;;;5014093;28;20205;-72
2020/12/10 11:27:39;;;;;;;12.97;11.57;;;6.40;95.30;;;;;;5013514;28;20535;-72
2020/12/10 11:30:05;;;;;;;14.90;11.37;;;6.40;95.20;;;;;;5014233;28;20206;-72
2020/12/10 11:32:31;;;;;;;17.05;13.00;;;6.40;95.00;;;;;;5012466;28;20211;-70
2020/12/10 11:34:57;;;;;;;15.27;12.40;;;6.40;94.90;;;;;;5014144;28;20182;-70
2020/12/10 11:37:23;;;;;;;16.73;13.17;;;6.40;94.70;;;;;;5014319;28;20812;-69
2020/12/10 11:39:49;;;;;;;15.90;11.60;;;6.40;94.80;;;;;;5013714;28;20191;-72
2020/12/10 11:42:15;;;;;;;17.63;12.83;;;6.30;94.80;;;;;;5014044;28;20662;-72
2020/12/10 11:44:48;;;;;;;15.33;12.57;;;6.40;94.90;;;;;;5012395;28;20397;-72
2020/12/10 11:47:13;;;;;;;15.38;12.85;;;6.40;95.00;;;;;;5015212;28;20227;-71
2020/12/10 11:49:39;;;;;;;16.23;12.30;;;6.40;95.00;;;;;;5014051;28;20581;-70
2020/12/10 11:52:05;;;;;;;16.27;12.00;;;6.40;95.00;;;;;;5011968;28;20258;-69
2020/12/10 11:54:31;;;;;;;15.60;12.30;;;6.20;94.70;;;;;;5014237;28;20253;-68
2020/12/10 11:57:16;;;;;;;14.40;12.43;;;6.20;95.20;;;;;;5013884;28;20171;-71
2020/12/10 11:59:49;;;;;;;11.70;10.30;;;6.30;95.20;;;;;;5011491;28;20753;-72
2020/12/10 12:02:15;;;;;;;14.33;10.20;;;6.40;95.50;;;;;;5014304;28;20171;-69
2020/12/10 12:05:02;;;;;;;13.73;10.95;;;6.40;95.20;;;;;;5014517;28;20477;-71
2020/12/10 12:07:28;;;;;;;12.35;9.73;;;6.50;94.60;;;;;;5014054;28;20543;-72
2020/12/10 12:09:54;;;;;;;15.80;11.80;;;6.60;94.40;;;;;;5014513;28;20172;-71
2020/12/10 12:12:20;;;;;;;14.87;10.60;;;6.60;94.20;;;;;;5014775;28;20660;-70
2020/12/10 12:14:45;;;;;;;15.53;11.10;;;6.60;94.30;;;;;;5013739;28;20183;-70
2020/12/10 12:17:11;;;;;;;16.30;11.10;;;6.60;94.10;;;;;;5014508;28;20762;-70
2020/12/10 12:19:37;;;;;;;12.53;11.23;;;6.70;94.10;;;;;;5012762;28;20275;-71
2020/12/10 12:22:14;;;;;;;17.00;11.67;;;6.60;93.70;;;;;;5013523;28;20258;-68
2020/12/10 12:24:55;;;;;;;14.80;11.15;;;6.10;94.50;;;;;;4997289;28;20198;-68
2020/12/10 12:27:22;;;;;;;13.48;11.57;;;6.30;94.70;;;;;;5013599;28;20168;-70
2020/12/10 12:29:48;;;;;;;15.52;12.18;;;6.30;94.40;;;;;;5012339;28;20212;-70
2020/12/10 12:32:13;;;;;;;13.80;11.30;;;6.00;94.60;;;;;;5013547;28;20183;-68
2020/12/10 12:34:39;;;;;;;15.50;12.00;;;6.20;95.00;;;;;;5012040;28;20270;-69
2020/12/10 12:37:05;;;;;;;14.53;11.67;;;6.30;94.90;;;;;;5013026;28;20388;-69
2020/12/10 12:39:31;;;;;;;13.17;11.77;;;6.40;94.90;;;;;;5002691;28;20175;-70
2020/12/10 12:41:56;;;;;;;13.07;11.00;;;6.50;94.70;;;;;;5011343;28;20305;-69
2020/12/10 12:44:22;;;;;;;16.80;12.30;;;6.60;94.60;;;;;;5012382;28;20179;-68
2020/12/10 12:46:51;;;;;;;15.07;10.63;;;6.50;94.20;;;;;;5013472;28;20183;-69
2020/12/10 12:49:20;;;;;;;14.43;12.13;;;6.60;94.40;;;;;;5013540;28;20187;-68
2020/12/10 12:51:57;;;;;;;13.40;11.60;;;6.70;94.40;;;;;;5010525;28;20649;-68
2020/12/10 12:54:43;;;;;;;14.52;12.07;;;6.80;94.40;;;;;;5008338;28;20446;-70
2020/12/10 12:57:09;;;;;;;11.27;10.10;;;6.90;94.30;;;;;;5012015;28;20212;-69
2020/12/10 12:59:35;;;;;;;12.33;10.67;;;6.90;93.90;;;;;;5012541;28;20885;-69